Time;durP1;ratioP1;P1;durP2;ratioP2;P2;SDS_P1;SDS_P2;PMS_P1;PMS_P2;Temp;Humidity;BMP_temperature;BMP_pressure;BME280_temperature;BME280_humidity;BME280_pressure;Samples;Min_cycle;Max_cycle;Signal;HPM_P1;HPM_P2
2022/07/03 00:00:30;;;;;;;;;10.75;10.50;;;;;;;;5254280;28;9563;-69
2022/07/03 00:03:01;;;;;;;;;10.50;9.75;;;;;;;;5256625;28;8842;-69
2022/07/03 00:05:51;;;;;;;;;19.25;15.50;;;;;;;;5270814;28;8782;-69
2022/07/03 00:08:22;;;;;;;;;17.75;15.75;;;;;;;;5255436;28;8788;-69
2022/07/03 00:10:53;;;;;;;;;58.40;47.20;;;;;;;;5273114;28;8777;-69
2022/07/03 00:13:43;;;;;;;;;24.00;21.80;;;;;;;;5291357;28;8801;-69
2022/07/03 00:16:14;;;;;;;;;21.80;20.60;;;;;;;;5291715;27;8784;-70
2022/07/03 00:18:45;;;;;;;;;26.40;25.00;;;;;;;;5277179;27;8780;-71
2022/07/03 00:21:19;;;;;;;;;26.00;25.00;;;;;;;;5277464;27;8764;-70
2022/07/03 00:24:09;;;;;;;;;25.80;25.60;;;;;;;;5304287;27;9916;-71
2022/07/03 00:27:01;;;;;;;;;28.80;28.20;;;;;;;;5276739;28;8791;-70
2022/07/03 00:29:53;;;;;;;;;21.00;20.60;;;;;;;;5291323;28;8798;-69
2022/07/03 00:32:24;;;;;;;;;13.25;12.75;;;;;;;;5272392;28;8789;-69
2022/07/03 00:34:56;;;;;;;;;10.50;10.50;;;;;;;;5272962;28;8839;-70
2022/07/03 00:37:27;;;;;;;;;12.25;11.25;;;;;;;;5272772;28;8817;-70
2022/07/03 00:40:00;;;;;;;;;10.50;10.25;;;;;;;;5272830;28;8778;-70
2022/07/03 00:42:31;;;;;;;;;9.00;9.00;;;;;;;;5255801;28;8982;-70
2022/07/03 00:45:06;;;;;;;;;25.80;25.40;;;;;;;;5238879;28;8774;-70
2022/07/03 00:47:37;;;;;;;;;11.75;11.75;;;;;;;;5290755;28;8798;-70
2022/07/03 00:50:08;;;;;;;;;8.50;8.25;;;;;;;;5287495;28;8797;-70
2022/07/03 00:52:45;;;;;;;;;10.50;9.50;;;;;;;;5255476;28;8870;-70
2022/07/03 00:55:17;;;;;;;;;9.75;9.75;;;;;;;;5284376;27;8780;-71
2022/07/03 00:57:48;;;;;;;;;16.25;14.25;;;;;;;;5276670;27;8771;-70
2022/07/03 01:00:20;;;;;;;;;29.80;28.40;;;;;;;;5274558;27;8922;-70
2022/07/03 01:02:56;;;;;;;;;13.50;12.50;;;;;;;;5276360;27;8957;-72
2022/07/03 01:05:32;;;;;;;;;9.00;8.50;;;;;;;;5276727;27;8799;-71
2022/07/03 01:08:22;;;;;;;;;8.75;8.00;;;;;;;;5293420;27;8768;-71
2022/07/03 01:11:07;;;;;;;;;43.20;35.40;;;;;;;;5292907;27;8763;-71
2022/07/03 01:13:39;;;;;;;;;17.25;16.50;;;;;;;;5303331;27;8802;-70
2022/07/03 01:16:27;;;;;;;;;11.50;11.50;;;;;;;;5271967;28;8778;-70
2022/07/03 01:19:10;;;;;;;;;15.00;14.25;;;;;;;;5255102;28;8770;-70
2022/07/03 01:21:46;;;;;;;;;15.50;15.00;;;;;;;;5255140;28;8778;-70
2022/07/03 01:24:36;;;;;;;;;9.00;8.50;;;;;;;;5285143;27;8800;-70
2022/07/03 01:27:13;;;;;;;;;10.75;10.00;;;;;;;;5273964;27;9519;-68
2022/07/03 01:29:52;;;;;;;;;16.40;15.60;;;;;;;;5275671;27;9522;-70
2022/07/03 01:32:27;;;;;;;;;17.60;17.60;;;;;;;;5285657;28;8801;-70
2022/07/03 01:35:27;;;;;;;;;21.00;20.60;;;;;;;;5257494;27;8905;-69
2022/07/03 01:38:01;;;;;;;;;42.00;35.00;;;;;;;;5268727;28;8781;-70
2022/07/03 01:40:34;;;;;;;;;48.60;40.60;;;;;;;;5271566;28;8778;-70
2022/07/03 01:43:06;;;;;;;;;136.00;120.50;;;;;;;;5287684;28;8786;-70
2022/07/03 01:45:58;;;;;;;;;72.40;54.20;;;;;;;;5271462;28;8777;-70
2022/07/03 01:48:50;;;;;;;;;47.60;40.40;;;;;;;;5271169;28;9532;-70
2022/07/03 01:51:23;;;;;;;;;42.40;36.20;;;;;;;;5279332;27;8764;-71
2022/07/03 01:54:13;;;;;;;;;64.60;52.00;;;;;;;;5277844;27;8864;-70
2022/07/03 01:56:44;;;;;;;;;25.20;22.80;;;;;;;;5275108;27;8898;-72
2022/07/03 01:59:15;;;;;;;;;13.50;12.75;;;;;;;;5287070;27;8764;-71
2022/07/03 02:01:47;;;;;;;;;20.00;19.60;;;;;;;;5267305;28;8886;-71
2022/07/03 02:04:28;;;;;;;;;17.33;17.33;;;;;;;;5266769;28;8950;-71
2022/07/03 02:07:33;;;;;;;;;37.80;33.00;;;;;;;;5252453;28;11430;-71
2022/07/03 02:10:06;;;;;;;;;18.80;18.40;;;;;;;;5220200;28;8800;-71
2022/07/03 02:12:40;;;;;;;;;9.50;9.50;;;;;;;;5233100;28;8858;-69
2022/07/03 02:15:12;;;;;;;;;8.25;8.25;;;;;;;;5266566;28;8768;-69
2022/07/03 02:17:45;;;;;;;;;12.25;12.00;;;;;;;;5249628;28;8744;-70
2022/07/03 02:20:16;;;;;;;;;6.50;5.50;;;;;;;;5250038;28;8806;-71
2022/07/03 02:22:59;;;;;;;;;8.00;8.00;;;;;;;;5273244;27;9557;-69
2022/07/03 02:25:38;;;;;;;;;9.75;9.25;;;;;;;;5273263;27;8772;-70
2022/07/03 02:28:12;;;;;;;;;5.50;4.50;;;;;;;;5273464;27;8826;-71
2022/07/03 02:30:48;;;;;;;;;17.20;15.40;;;;;;;;5278458;28;8858;-69
2022/07/03 02:33:24;;;;;;;;;26.00;24.80;;;;;;;;5249377;28;8930;-70
2022/07/03 02:35:56;;;;;;;;;20.00;19.20;;;;;;;;5249901;28;8780;-70
2022/07/03 02:38:28;;;;;;;;;29.80;28.40;;;;;;;;5250627;28;8816;-70
2022/07/03 02:41:07;;;;;;;;;42.00;37.60;;;;;;;;5269562;28;8841;-70
2022/07/03 02:43:41;;;;;;;;;38.60;32.40;;;;;;;;5248530;28;8804;-70
2022/07/03 02:49:17;;;;;;;;;37.20;33.60;;;;;;;;5240472;28;8796;-71
2022/07/03 02:52:00;;;;;;;;;21.20;19.80;;;;;;;;5267675;28;8932;-71
2022/07/03 02:54:51;;;;;;;;;18.00;18.00;;;;;;;;5286269;27;8941;-72
2022/07/03 02:57:22;;;;;;;;;19.25;19.25;;;;;;;;5253408;28;8785;-70
2022/07/03 02:59:54;;;;;;;;;9.75;8.25;;;;;;;;5236123;28;9611;-70
2022/07/03 03:02:36;;;;;;;;;16.75;16.50;;;;;;;;5254853;28;8786;-72
2022/07/03 03:05:15;;;;;;;;;19.40;19.00;;;;;;;;5269069;28;9192;-70
2022/07/03 03:08:08;;;;;;;;;21.60;19.80;;;;;;;;5251871;28;8769;-72
2022/07/03 03:10:39;;;;;;;;;36.40;33.40;;;;;;;;5252778;28;8770;-70
2022/07/03 03:13:12;;;;;;;;;29.80;28.20;;;;;;;;5235822;28;8806;-70
2022/07/03 03:16:06;;;;;;;;;49.00;40.40;;;;;;;;5284560;28;8770;-68
2022/07/03 03:18:38;;;;;;;;;49.80;39.60;;;;;;;;5252836;28;8916;-69
2022/07/03 03:21:10;;;;;;;;;33.20;31.40;;;;;;;;5252957;28;8762;-68
2022/07/03 03:23:45;;;;;;;;;46.80;39.60;;;;;;;;5287843;28;8778;-68
2022/07/03 03:26:21;;;;;;;;;18.40;18.00;;;;;;;;5243440;27;8767;-70
2022/07/03 03:29:10;;;;;;;;;12.80;12.20;;;;;;;;5309285;27;9481;-71
2022/07/03 03:31:41;;;;;;;;;8.75;8.00;;;;;;;;5257185;27;8918;-70
2022/07/03 03:34:32;;;;;;;;;17.50;16.50;;;;;;;;5290720;27;8823;-70
2022/07/03 03:37:04;;;;;;;;;22.40;21.20;;;;;;;;5274709;27;8934;-70
2022/07/03 03:39:35;;;;;;;;;10.50;9.00;;;;;;;;5286725;28;8817;-71
2022/07/03 03:42:06;;;;;;;;;7.00;7.00;;;;;;;;5253002;28;9519;-70
2022/07/03 03:44:38;;;;;;;;;7.75;7.00;;;;;;;;5269587;28;8890;-69
2022/07/03 03:47:09;;;;;;;;;13.25;13.25;;;;;;;;5236050;28;9543;-70
2022/07/03 03:49:40;;;;;;;;;4.50;4.50;;;;;;;;5253134;28;8782;-69
2022/07/03 03:52:11;;;;;;;;;10.00;9.50;;;;;;;;5269677;28;8773;-70
2022/07/03 03:54:42;;;;;;;;;5.67;5.67;;;;;;;;5301933;28;8798;-69
2022/07/03 03:57:17;;;;;;;;;9.67;9.33;;;;;;;;5287703;28;9758;-70
2022/07/03 03:59:49;;;;;;;;;29.00;26.00;;;;;;;;5284724;27;8787;-70
2022/07/03 04:02:20;;;;;;;;;23.00;20.75;;;;;;;;5256810;27;8774;-70
2022/07/03 04:05:09;;;;;;;;;61.20;49.20;;;;;;;;5293486;27;9533;-70
2022/07/03 04:07:40;;;;;;;;;45.40;36.80;;;;;;;;5275798;27;8824;-69
2022/07/03 04:10:11;;;;;;;;;21.00;19.33;;;;;;;;5294166;27;8776;-70
2022/07/03 04:12:42;;;;;;;;;15.75;14.75;;;;;;;;5276980;27;9237;-71
2022/07/03 04:15:13;;;;;;;;;15.33;14.00;;;;;;;;5273494;28;8762;-70
2022/07/03 04:17:44;;;;;;;;;22.25;21.50;;;;;;;;5281404;28;11624;-70
2022/07/03 04:20:15;;;;;;;;;11.00;8.00;;;;;;;;5235362;28;8784;-71
2022/07/03 04:22:48;;;;;;;;;9.25;8.50;;;;;;;;5251730;28;8776;-71
2022/07/03 04:25:19;;;;;;;;;21.75;20.25;;;;;;;;5270094;27;8784;-72
2022/07/03 04:27:49;;;;;;;;;15.25;15.00;;;;;;;;5269663;28;8845;-71
2022/07/03 04:30:21;;;;;;;;;5.50;5.25;;;;;;;;5235417;28;9511;-70
2022/07/03 04:32:52;;;;;;;;;17.40;16.40;;;;;;;;5251646;28;8796;-70
2022/07/03 04:35:25;;;;;;;;;30.80;29.20;;;;;;;;5235088;28;8810;-71
2022/07/03 04:37:56;;;;;;;;;19.33;18.67;;;;;;;;5271746;28;8790;-70
2022/07/03 04:40:27;;;;;;;;;50.50;42.75;;;;;;;;5272593;28;9385;-69
2022/07/03 04:42:58;;;;;;;;;72.40;54.20;;;;;;;;5283381;27;10299;-69
2022/07/03 04:45:29;;;;;;;;;68.20;53.40;;;;;;;;5293493;27;8783;-69
2022/07/03 04:48:00;;;;;;;;;30.20;28.60;;;;;;;;5277022;27;8780;-71
2022/07/03 04:50:31;;;;;;;;;14.50;14.00;;;;;;;;5274925;27;8805;-69
2022/07/03 04:53:01;;;;;;;;;6.67;6.67;;;;;;;;5293427;27;8803;-69
2022/07/03 04:55:32;;;;;;;;;6.67;6.00;;;;;;;;5283992;28;11367;-70
2022/07/03 04:58:22;;;;;;;;;9.75;8.00;;;;;;;;5272461;28;9179;-69
2022/07/03 05:00:52;;;;;;;;;6.50;5.50;;;;;;;;5255102;28;8766;-68
2022/07/03 05:03:24;;;;;;;;;9.75;9.75;;;;;;;;5290466;27;9578;-69
2022/07/03 05:05:55;;;;;;;;;7.67;7.67;;;;;;;;5268408;28;8784;-68
2022/07/03 05:08:26;;;;;;;;;4.00;4.00;;;;;;;;5251273;28;9321;-68
2022/07/03 05:10:57;;;;;;;;;4.00;4.00;;;;;;;;5234551;28;8771;-68
2022/07/03 05:13:27;;;;;;;;;9.00;9.00;;;;;;;;5275786;27;8839;-68
2022/07/03 05:15:58;;;;;;;;;4.00;3.00;;;;;;;;5297517;27;10306;-68
2022/07/03 05:18:29;;;;;;;;;19.50;19.50;;;;;;;;5257517;27;9701;-68
2022/07/03 05:21:01;;;;;;;;;35.50;32.25;;;;;;;;5284754;27;8839;-69
2022/07/03 05:23:32;;;;;;;;;20.50;18.25;;;;;;;;5249036;28;11459;-69
2022/07/03 05:26:21;;;;;;;;;26.80;22.60;;;;;;;;5259295;28;8817;-70
2022/07/03 05:28:52;;;;;;;;;6.75;6.75;;;;;;;;5252778;28;8821;-68
2022/07/03 05:31:24;;;;;;;;;17.33;15.67;;;;;;;;5269852;28;8829;-70
2022/07/03 05:33:55;;;;;;;;;12.00;11.25;;;;;;;;5268702;27;8807;-70
2022/07/03 05:36:45;;;;;;;;;54.00;44.60;;;;;;;;5290830;27;8914;-70
2022/07/03 05:39:34;;;;;;;;;43.20;37.00;;;;;;;;5273984;27;8791;-68
2022/07/03 05:42:06;;;;;;;;;52.80;43.40;;;;;;;;5266087;28;9709;-69
2022/07/03 05:44:39;;;;;;;;;40.00;34.80;;;;;;;;5252573;28;8882;-71
2022/07/03 05:47:10;;;;;;;;;19.00;16.75;;;;;;;;5271053;27;8774;-69
2022/07/03 05:49:41;;;;;;;;;17.80;17.40;;;;;;;;5261976;27;8851;-71
2022/07/03 05:52:12;;;;;;;;;10.00;8.25;;;;;;;;5275379;28;8778;-71
2022/07/03 05:54:43;;;;;;;;;8.00;7.00;;;;;;;;5305693;27;8814;-72
2022/07/03 05:57:14;;;;;;;;;9.00;8.25;;;;;;;;5288081;28;8770;-68
2022/07/03 05:59:45;;;;;;;;;18.50;17.25;;;;;;;;5289519;28;9561;-68
2022/07/03 06:02:17;;;;;;;;;29.00;25.75;;;;;;;;5254075;28;8770;-67
2022/07/03 06:04:48;;;;;;;;;14.80;14.20;;;;;;;;5270941;28;8957;-68
2022/07/03 06:07:19;;;;;;;;;10.00;9.67;;;;;;;;5254872;27;8918;-68
2022/07/03 06:09:50;;;;;;;;;18.00;17.25;;;;;;;;5291943;27;12100;-68
2022/07/03 06:12:23;;;;;;;;;36.20;32.40;;;;;;;;5292244;27;8768;-68
2022/07/03 06:14:54;;;;;;;;;20.50;19.25;;;;;;;;5310106;27;8807;-68
2022/07/03 06:17:25;;;;;;;;;9.50;9.50;;;;;;;;5309447;27;9553;-68
2022/07/03 06:20:15;;;;;;;;;7.25;7.00;;;;;;;;5294705;27;9482;-69
2022/07/03 06:22:46;;;;;;;;;4.75;4.75;;;;;;;;5291628;27;8784;-68
2022/07/03 06:25:17;;;;;;;;;15.00;14.00;;;;;;;;5309682;27;8850;-68
2022/07/03 06:28:06;;;;;;;;;38.80;33.80;;;;;;;;5277849;28;12214;-67
2022/07/03 06:30:37;;;;;;;;;26.40;23.60;;;;;;;;5281110;27;8816;-67
2022/07/03 06:33:08;;;;;;;;;37.00;33.25;;;;;;;;5303657;27;8829;-67
2022/07/03 06:35:40;;;;;;;;;14.75;13.50;;;;;;;;5257469;28;10456;-67
2022/07/03 06:38:11;;;;;;;;;6.67;6.33;;;;;;;;5272331;27;8768;-67
2022/07/03 06:40:42;;;;;;;;;5.25;4.00;;;;;;;;5293825;27;11554;-69
2022/07/03 06:43:12;;;;;;;;;11.33;11.33;;;;;;;;5301928;27;8778;-67
2022/07/03 06:45:43;;;;;;;;;9.33;9.33;;;;;;;;5295475;27;8765;-68
2022/07/03 06:48:33;;;;;;;;;38.80;34.60;;;;;;;;5289477;27;11383;-67
2022/07/03 06:51:04;;;;;;;;;66.00;53.00;;;;;;;;5288014;28;8790;-68
2022/07/03 06:53:35;;;;;;;;;54.75;44.50;;;;;;;;5271058;28;11453;-68
2022/07/03 06:56:06;;;;;;;;;28.00;26.25;;;;;;;;5271654;28;11424;-68
2022/07/03 06:58:37;;;;;;;;;18.00;16.75;;;;;;;;5270586;28;11447;-68
2022/07/03 07:01:08;;;;;;;;;20.00;18.75;;;;;;;;5270787;27;8777;-69
2022/07/03 07:03:38;;;;;;;;;32.20;30.80;;;;;;;;5305534;27;9339;-68
2022/07/03 07:06:09;;;;;;;;;34.25;30.00;;;;;;;;5265941;27;8784;-69
2022/07/03 07:08:41;;;;;;;;;13.25;12.50;;;;;;;;5308440;27;9797;-68
2022/07/03 07:11:11;;;;;;;;;42.80;36.00;;;;;;;;5288242;28;8774;-67
2022/07/03 07:13:42;;;;;;;;;31.75;30.00;;;;;;;;5269731;28;8810;-68
2022/07/03 07:16:14;;;;;;;;;8.25;8.25;;;;;;;;5249075;28;11471;-68
2022/07/03 07:18:45;;;;;;;;;6.00;6.00;;;;;;;;5242372;28;8803;-68
2022/07/03 07:21:17;;;;;;;;;16.25;16.00;;;;;;;;5235874;28;8792;-67
2022/07/03 07:24:06;;;;;;;;;8.50;8.00;;;;;;;;5263369;28;9534;-67
2022/07/03 07:26:37;;;;;;;;;28.75;26.25;;;;;;;;5272382;28;8938;-68
2022/07/03 07:29:27;;;;;;;;;22.75;19.75;;;;;;;;5287960;28;8798;-68
2022/07/03 07:31:58;;;;;;;;;35.50;32.00;;;;;;;;5284765;27;8854;-70
2022/07/03 07:34:30;;;;;;;;;25.25;24.75;;;;;;;;5269400;28;11560;-68
2022/07/03 07:37:01;;;;;;;;;11.75;10.75;;;;;;;;5267606;27;8768;-67
2022/07/03 07:39:32;;;;;;;;;12.75;11.50;;;;;;;;5272062;28;8782;-67
2022/07/03 07:42:03;;;;;;;;;20.33;19.33;;;;;;;;5272168;28;8818;-68
2022/07/03 07:44:34;;;;;;;;;56.60;44.60;;;;;;;;5289683;27;8779;-67
2022/07/03 07:47:05;;;;;;;;;22.20;21.00;;;;;;;;5293369;27;8797;-67
2022/07/03 07:49:36;;;;;;;;;38.80;33.20;;;;;;;;5278363;27;8784;-69
2022/07/03 07:52:07;;;;;;;;;27.00;27.00;;;;;;;;5304496;27;8806;-68
2022/07/03 07:54:38;;;;;;;;;29.00;28.20;;;;;;;;5307220;27;11445;-68
2022/07/03 07:57:09;;;;;;;;;5.50;5.25;;;;;;;;5274514;27;8814;-67
2022/07/03 07:59:40;;;;;;;;;8.00;7.50;;;;;;;;5300353;27;8855;-68
2022/07/03 08:07:49;;;;;;;;;7.75;7.75;;;;;;;;5291571;27;8768;-68
2022/07/03 08:10:21;;;;;;;;;5.75;5.75;;;;;;;;5277920;28;8866;-67
2022/07/03 08:12:54;;;;;;;;;11.00;11.00;;;;;;;;5289015;27;8804;-68
2022/07/03 08:15:25;;;;;;;;;14.00;11.50;;;;;;;;5292015;27;8782;-68
2022/07/03 08:17:56;;;;;;;;;14.00;13.00;;;;;;;;5296999;27;8871;-68
2022/07/03 08:20:27;;;;;;;;;6.00;5.00;;;;;;;;5282252;28;11405;-67
2022/07/03 08:22:58;;;;;;;;;6.33;6.33;;;;;;;;5291488;27;11075;-67
2022/07/03 08:25:32;;;;;;;;;7.00;7.00;;;;;;;;5280652;27;8812;-69
2022/07/03 08:28:03;;;;;;;;;15.75;15.00;;;;;;;;5301110;27;8807;-67
2022/07/03 08:30:34;;;;;;;;;6.00;5.75;;;;;;;;5297489;27;8890;-67
2022/07/03 08:33:05;;;;;;;;;7.00;6.67;;;;;;;;5290806;27;9656;-67
2022/07/03 08:35:37;;;;;;;;;6.50;6.50;;;;;;;;5307581;27;9110;-67
2022/07/03 08:38:08;;;;;;;;;21.75;20.50;;;;;;;;5267883;28;8792;-68
2022/07/03 08:40:40;;;;;;;;;20.33;20.33;;;;;;;;5269704;28;8780;-69
2022/07/03 08:43:11;;;;;;;;;26.25;25.50;;;;;;;;5242199;27;12173;-67
2022/07/03 08:45:42;;;;;;;;;4.50;4.50;;;;;;;;5285106;28;8774;-68
2022/07/03 08:48:14;;;;;;;;;1.50;1.50;;;;;;;;5291043;28;8796;-69
2022/07/03 08:50:45;;;;;;;;;6.00;6.00;;;;;;;;5239809;27;8774;-68
2022/07/03 08:53:17;;;;;;;;;4.75;4.75;;;;;;;;5303357;27;9538;-68
2022/07/03 08:55:48;;;;;;;;;5.00;5.00;;;;;;;;5293677;27;9500;-68
2022/07/03 08:58:38;;;;;;;;;6.75;6.25;;;;;;;;5308196;27;8822;-67
2022/07/03 09:01:09;;;;;;;;;7.00;6.25;;;;;;;;5302941;27;8800;-68
2022/07/03 09:03:41;;;;;;;;;7.50;7.50;;;;;;;;5257688;27;8784;-68
2022/07/03 09:06:12;;;;;;;;;6.75;6.00;;;;;;;;5290560;27;8793;-67
2022/07/03 09:08:44;;;;;;;;;7.25;7.25;;;;;;;;5290803;27;8911;-68
2022/07/03 09:11:15;;;;;;;;;7.50;7.50;;;;;;;;5255290;28;8936;-67
2022/07/03 09:13:46;;;;;;;;;5.25;3.50;;;;;;;;5251894;28;8932;-67
2022/07/03 09:16:36;;;;;;;;;9.50;8.00;;;;;;;;5306381;27;8766;-68
2022/07/03 09:19:07;;;;;;;;;9.00;7.25;;;;;;;;5274334;28;8796;-68
2022/07/03 09:21:39;;;;;;;;;8.67;8.67;;;;;;;;5301682;27;8780;-68
2022/07/03 09:24:32;;;;;;;;;10.25;9.75;;;;;;;;5256248;27;9744;-67
2022/07/03 09:27:10;;;;;;;;;8.75;7.50;;;;;;;;5257815;27;8802;-69
2022/07/03 09:29:50;;;;;;;;;11.25;9.75;;;;;;;;5257605;27;8790;-68
2022/07/03 09:32:42;;;;;;;;;9.50;9.50;;;;;;;;5260456;28;9644;-68
2022/07/03 09:35:14;;;;;;;;;5.50;5.25;;;;;;;;5250350;28;8807;-68
2022/07/03 09:37:57;;;;;;;;;4.25;4.25;;;;;;;;5275746;27;9517;-68
2022/07/03 09:40:45;;;;;;;;;4.00;4.00;;;;;;;;5291239;27;8794;-68
2022/07/03 09:43:29;;;;;;;;;9.50;8.75;;;;;;;;5292541;27;9520;-68
2022/07/03 09:46:01;;;;;;;;;6.50;6.50;;;;;;;;5255362;28;8780;-68
2022/07/03 09:48:36;;;;;;;;;16.25;16.00;;;;;;;;5233875;28;8811;-68
2022/07/03 09:51:10;;;;;;;;;14.25;12.75;;;;;;;;5271046;27;8779;-67
2022/07/03 09:53:45;;;;;;;;;6.25;5.50;;;;;;;;5238010;27;8792;-68
2022/07/03 09:56:17;;;;;;;;;3.25;3.25;;;;;;;;5257533;27;8768;-69
2022/07/03 09:59:05;;;;;;;;;8.00;8.00;;;;;;;;5271216;28;9520;-68
2022/07/03 10:01:43;;;;;;;;;7.25;7.25;;;;;;;;5255392;27;8818;-69
2022/07/03 10:04:15;;;;;;;;;5.00;5.00;;;;;;;;5259177;28;8806;-69
2022/07/03 10:06:47;;;;;;;;;12.75;12.75;;;;;;;;5270959;28;8867;-69
2022/07/03 10:09:19;;;;;;;;;4.75;4.75;;;;;;;;5289151;28;8786;-69
2022/07/03 10:11:50;;;;;;;;;11.25;11.00;;;;;;;;5270917;28;8808;-67
2022/07/03 10:14:25;;;;;;;;;8.00;8.00;;;;;;;;5271261;28;9544;-70
2022/07/03 10:17:01;;;;;;;;;15.75;15.75;;;;;;;;5253958;27;8796;-67
2022/07/03 10:19:37;;;;;;;;;43.80;38.20;;;;;;;;5261155;28;8960;-69
2022/07/03 10:22:11;;;;;;;;;11.00;11.00;;;;;;;;5268025;28;8768;-69
2022/07/03 10:24:43;;;;;;;;;24.50;24.50;;;;;;;;5232813;28;8811;-69
2022/07/03 10:27:14;;;;;;;;;11.75;11.75;;;;;;;;5215921;28;8792;-69
2022/07/03 10:29:46;;;;;;;;;11.25;11.25;;;;;;;;5249659;28;8780;-68
2022/07/03 10:32:17;;;;;;;;;10.25;10.25;;;;;;;;5216311;28;8981;-68
2022/07/03 10:34:48;;;;;;;;;13.00;13.00;;;;;;;;5267881;28;8922;-68
2022/07/03 10:37:21;;;;;;;;;3.33;3.33;;;;;;;;5287658;28;8818;-69
2022/07/03 10:46:09;;;;;;;;;0.50;0.50;;;;;;;;5287046;28;8847;-69
2022/07/03 10:48:52;;;;;;;;;1.25;1.25;;;;;;;;5287369;28;8782;-68
2022/07/03 10:51:23;;;;;;;;;3.00;3.00;;;;;;;;5270414;28;8779;-68
2022/07/03 10:54:14;;;;;;;;;5.00;5.00;;;;;;;;5288069;28;8803;-68
2022/07/03 10:57:00;;;;;;;;;7.50;7.50;;;;;;;;5270666;28;8775;-68
2022/07/03 10:59:31;;;;;;;;;6.00;6.00;;;;;;;;5270267;28;8772;-68
2022/07/03 11:02:22;;;;;;;;;3.00;3.00;;;;;;;;5288461;28;8856;-68
2022/07/03 11:04:56;;;;;;;;;3.50;3.50;;;;;;;;5288168;28;9955;-69
2022/07/03 11:07:29;;;;;;;;;6.25;6.25;;;;;;;;5270212;28;8840;-68
2022/07/03 11:10:12;;;;;;;;;12.50;12.50;;;;;;;;5253281;28;8783;-68
2022/07/03 11:12:55;;;;;;;;;6.00;6.00;;;;;;;;5253482;27;8829;-68
2022/07/03 11:15:45;;;;;;;;;20.50;20.50;;;;;;;;5236507;28;8785;-68
2022/07/03 11:18:34;;;;;;;;;4.75;4.75;;;;;;;;5292644;28;8762;-68
2022/07/03 11:21:11;;;;;;;;;1.25;1.25;;;;;;;;5308606;27;8846;-69
2022/07/03 11:23:48;;;;;;;;;3.00;3.00;;;;;;;;5257520;28;8782;-69
2022/07/03 11:26:21;;;;;;;;;3.00;3.00;;;;;;;;5275476;28;8883;-67
2022/07/03 11:29:27;;;;;;;;;5.00;5.00;;;;;;;;5271715;28;8828;-68
2022/07/03 11:32:18;;;;;;;;;3.50;3.50;;;;;;;;5253311;28;8776;-69
2022/07/03 11:34:49;;;;;;;;;8.25;8.25;;;;;;;;5262190;28;8936;-69
2022/07/03 11:37:20;;;;;;;;;36.67;34.00;;;;;;;;5292196;28;8909;-68
2022/07/03 11:39:53;;;;;;;;;3.33;3.33;;;;;;;;5291906;28;11385;-69
2022/07/03 11:42:25;;;;;;;;;47.00;39.60;;;;;;;;5273533;28;11335;-68
2022/07/03 11:44:56;;;;;;;;;9.25;9.25;;;;;;;;5274558;28;8778;-67
2022/07/03 11:47:28;;;;;;;;;8.25;8.25;;;;;;;;5273827;28;8762;-68
2022/07/03 11:50:17;;;;;;;;;4.75;4.75;;;;;;;;5277545;28;8820;-68
2022/07/03 11:52:48;;;;;;;;;4.67;4.33;;;;;;;;5256882;28;8762;-69
2022/07/03 11:55:19;;;;;;;;;13.33;13.00;;;;;;;;5273781;28;11353;-68
2022/07/03 11:57:50;;;;;;;;;4.33;4.33;;;;;;;;5292129;28;9155;-69
2022/07/03 12:00:40;;;;;;;;;5.00;5.00;;;;;;;;5259201;28;10355;-70
2022/07/03 12:03:14;;;;;;;;;5.00;5.00;;;;;;;;5291954;28;8816;-68
2022/07/03 12:05:52;;;;;;;;;13.50;12.75;;;;;;;;5292936;27;8880;-69
2022/07/03 12:08:24;;;;;;;;;7.00;7.00;;;;;;;;5250387;28;8788;-68
2022/07/03 12:10:56;;;;;;;;;5.75;5.75;;;;;;;;5269323;28;8772;-68
2022/07/03 12:13:29;;;;;;;;;2.75;2.75;;;;;;;;5269010;28;8799;-68
2022/07/03 12:16:11;;;;;;;;;5.00;5.00;;;;;;;;5252115;28;8776;-68
2022/07/03 12:18:42;;;;;;;;;0.50;0.50;;;;;;;;5235956;28;8816;-68
2022/07/03 12:21:38;;;;;;;;;4.50;4.50;;;;;;;;5270397;28;8764;-69
2022/07/03 12:24:10;;;;;;;;;2.75;2.75;;;;;;;;5247827;27;8791;-69
2022/07/03 12:26:41;;;;;;;;;4.25;4.25;;;;;;;;5275433;27;8832;-67
2022/07/03 12:29:16;;;;;;;;;2.67;2.67;;;;;;;;5312050;27;8783;-69
2022/07/03 12:31:48;;;;;;;;;6.00;6.00;;;;;;;;5258511;27;8842;-67
2022/07/03 12:34:19;;;;;;;;;11.75;10.25;;;;;;;;5260047;27;8811;-67
2022/07/03 12:36:54;;;;;;;;;5.50;5.50;;;;;;;;5312158;27;8860;-68
2022/07/03 12:39:41;;;;;;;;;6.50;3.00;;;;;;;;5260896;27;8752;-67
2022/07/03 12:42:16;;;;;;;;;5.50;4.00;;;;;;;;5312371;27;8783;-68
2022/07/03 12:44:58;;;;;;;;;5.50;5.25;;;;;;;;5250197;28;8997;-68
2022/07/03 12:47:30;;;;;;;;;5.25;5.00;;;;;;;;5252375;28;8772;-68
2022/07/03 12:50:02;;;;;;;;;4.25;4.00;;;;;;;;5235303;28;8777;-68
2022/07/03 12:52:52;;;;;;;;;2.50;2.25;;;;;;;;5268595;28;8895;-68
2022/07/03 12:55:27;;;;;;;;;4.50;4.25;;;;;;;;5218519;28;8779;-68
2022/07/03 13:01:27;;;;;;;;;0.25;0.00;;;;;;;;5304106;27;8770;-68
2022/07/03 13:03:59;;;;;;;;;9.25;8.50;;;;;;;;5263240;27;8832;-67
2022/07/03 13:06:30;;;;;;;;;16.00;14.50;;;;;;;;5293244;27;8815;-68
2022/07/03 13:09:03;;;;;;;;;24.75;23.25;;;;;;;;5293380;27;8756;-67
2022/07/03 13:11:41;;;;;;;;;5.50;4.25;;;;;;;;5293387;27;8768;-68
2022/07/03 13:14:30;;;;;;;;;7.25;5.50;;;;;;;;5296067;27;8846;-68
2022/07/03 13:17:01;;;;;;;;;30.50;24.75;;;;;;;;5311694;27;8764;-67
2022/07/03 13:19:32;;;;;;;;;11.67;10.00;;;;;;;;5295851;27;9481;-67
2022/07/03 13:22:03;;;;;;;;;7.00;6.75;;;;;;;;5256398;27;10535;-68
2022/07/03 13:24:34;;;;;;;;;19.75;18.75;;;;;;;;5260785;28;8776;-68
2022/07/03 13:27:05;;;;;;;;;4.33;3.67;;;;;;;;5288585;27;8786;-68
2022/07/03 13:29:36;;;;;;;;;7.67;7.67;;;;;;;;5289490;28;10611;-68
2022/07/03 13:32:07;;;;;;;;;6.00;5.00;;;;;;;;5288762;28;8801;-67
2022/07/03 13:34:56;;;;;;;;;15.50;14.00;;;;;;;;5253280;28;10373;-67
2022/07/03 13:37:27;;;;;;;;;26.50;26.25;;;;;;;;5250861;28;8927;-68
2022/07/03 13:39:58;;;;;;;;;20.50;17.50;;;;;;;;5233219;28;8815;-67
2022/07/03 13:42:29;;;;;;;;;25.00;23.33;;;;;;;;5250585;28;8776;-68
2022/07/03 13:45:00;;;;;;;;;4.50;4.50;;;;;;;;5254340;28;8811;-69
2022/07/03 13:47:33;;;;;;;;;4.00;4.00;;;;;;;;5288306;28;8767;-69
2022/07/03 13:50:05;;;;;;;;;8.33;8.33;;;;;;;;5289425;28;8781;-68
2022/07/03 13:52:54;;;;;;;;;4.00;4.00;;;;;;;;5288931;28;11124;-68
2022/07/03 13:55:43;;;;;;;;;6.25;5.25;;;;;;;;5289760;28;8761;-68
2022/07/03 13:58:14;;;;;;;;;7.00;6.67;;;;;;;;5271190;28;8757;-68
2022/07/03 14:00:45;;;;;;;;;2.00;1.33;;;;;;;;5271262;27;11338;-68
2022/07/03 14:03:16;;;;;;;;;5.25;4.50;;;;;;;;5263216;28;11313;-68
2022/07/03 14:06:05;;;;;;;;;8.25;7.50;;;;;;;;5282443;28;8783;-67
2022/07/03 14:08:36;;;;;;;;;3.50;3.00;;;;;;;;5288230;28;8767;-67
2022/07/03 14:11:07;;;;;;;;;8.00;7.50;;;;;;;;5271089;28;8799;-67
2022/07/03 14:13:38;;;;;;;;;7.00;6.25;;;;;;;;5288759;28;8815;-67
2022/07/03 14:16:10;;;;;;;;;13.00;12.00;;;;;;;;5288847;28;8771;-68
2022/07/03 14:19:02;;;;;;;;;12.25;11.50;;;;;;;;5288018;27;8774;-68
2022/07/03 14:21:34;;;;;;;;;16.50;15.75;;;;;;;;5253838;28;8774;-67
2022/07/03 14:24:05;;;;;;;;;2.00;1.75;;;;;;;;5253582;28;8796;-68
2022/07/03 14:32:31;;;;;;;;;11.25;11.00;;;;;;;;5292566;28;8778;-67
2022/07/03 14:35:02;;;;;;;;;4.00;3.75;;;;;;;;5271132;28;9524;-67
2022/07/03 14:37:35;;;;;;;;;18.00;16.50;;;;;;;;5273571;27;8763;-67
2022/07/03 14:40:06;;;;;;;;;15.25;14.50;;;;;;;;5291345;27;8875;-67
2022/07/03 14:42:37;;;;;;;;;20.33;20.00;;;;;;;;5257577;27;8894;-66
2022/07/03 14:45:08;;;;;;;;;27.00;25.00;;;;;;;;5309750;27;8918;-67
2022/07/03 14:47:39;;;;;;;;;7.00;7.00;;;;;;;;5306964;27;9815;-67
2022/07/03 14:50:10;;;;;;;;;6.00;6.00;;;;;;;;5247926;28;8938;-67
2022/07/03 14:52:41;;;;;;;;;8.50;8.50;;;;;;;;5267787;27;10327;-67
2022/07/03 14:55:13;;;;;;;;;9.75;9.50;;;;;;;;5309751;27;8959;-67
2022/07/03 14:58:21;;;;;;;;;10.50;9.75;;;;;;;;5284386;28;9492;-67
2022/07/03 15:00:54;;;;;;;;;5.00;5.00;;;;;;;;5277589;27;8801;-67
2022/07/03 15:03:29;;;;;;;;;12.75;12.75;;;;;;;;5273002;28;8774;-67
2022/07/03 15:06:01;;;;;;;;;12.00;10.75;;;;;;;;5254009;28;8818;-67
2022/07/03 15:08:32;;;;;;;;;18.25;17.50;;;;;;;;5235707;28;8770;-67
2022/07/03 15:14:44;;;;;;;;;12.25;11.00;;;;;;;;5236332;28;8811;-68
2022/07/03 15:17:35;;;;;;;;;5.50;4.50;;;;;;;;5252054;28;8787;-67
2022/07/03 15:20:07;;;;;;;;;8.50;8.50;;;;;;;;5287876;28;8790;-67
2022/07/03 15:22:57;;;;;;;;;7.00;7.00;;;;;;;;5286530;28;8776;-67
2022/07/03 15:25:28;;;;;;;;;1.25;1.25;;;;;;;;5269945;28;8836;-67
2022/07/03 15:27:59;;;;;;;;;1.50;1.50;;;;;;;;5286615;28;8791;-67
2022/07/03 15:30:31;;;;;;;;;0.00;0.00;;;;;;;;5287950;28;8807;-67
2022/07/03 15:33:02;;;;;;;;;0.00;0.00;;;;;;;;5287671;28;9413;-67
2022/07/03 15:35:33;;;;;;;;;0.00;0.00;;;;;;;;5287468;28;8776;-67
2022/07/03 15:38:14;;;;;;;;;0.25;0.25;;;;;;;;5269549;28;8792;-67
2022/07/03 15:41:17;;;;;;;;;0.00;0.00;;;;;;;;5284887;28;8789;-68
2022/07/03 15:44:13;;;;;;;;;0.00;0.00;;;;;;;;5265291;28;8812;-68
2022/07/03 15:46:53;;;;;;;;;0.50;0.50;;;;;;;;5245086;28;8800;-68
2022/07/03 15:49:43;;;;;;;;;19.75;19.50;;;;;;;;5285191;28;8789;-68
2022/07/03 15:52:37;;;;;;;;;3.75;3.75;;;;;;;;5272514;28;8762;-68
2022/07/03 15:55:09;;;;;;;;;10.25;10.25;;;;;;;;5252352;28;8821;-68
2022/07/03 15:57:45;;;;;;;;;9.25;9.25;;;;;;;;5269636;28;8849;-68